Airfield :







YOU CAN JOIN US ON...

 
LOGIN :

Register | Disclaimer

   EN    FR    IT 

 









Legend :    VFR   Marginal VFR   IFR   Intensive IFR   Very Intensive IFR
Visi :
Ceiling :
>= 8 km
>= 3000ft
5 to 8 km
1000 to 3000 ft
1500m to 5 km
500 to 1000 ft
800 to 1500m
200 to 500 ft
< 800m
< 200 ft
Symbols :   Thunderstorms  Fog  Heavy snow  Heavy precipitations  Wind > 20 kt






- Airport Elevation : 1663 ft
- IATA code : SLK


KSLK - Adirondack Regional

CURRENT METAR :
  • 280941Z AUTO 25010G26KT 2SM -SN OVC022 M08/M12 A2940 RMK AO2 PK WND 25030/0912 P0000 T10831117

EXPIRED METARs :
  • 280928Z AUTO 24014G25KT 3SM -SN OVC020 M08/M12 A2940 RMK AO2 PK WND 25030/0912 P0000 T10831117
  • 280915Z AUTO 25017G30KT 3/4SM -SN VV013 M08/M12 A2940 RMK AO2 PK WND 25030/0912 P0000 T10831117
  • 280851Z AUTO 24010G18KT 1/2SM SN FZFG VV007 M08/M11 A2938 RMK AO2 SLP973 P0001 60001 T10831106 53001
  • 280829Z AUTO 22010KT 1/2SM SN FZFG VV005 M08/M11 A2938 RMK AO2 P0001 T10831106
  • 280819Z AUTO 23009KT 1/4SM +SN FZFG VV005 M08/M11 A2937 RMK AO2 P0001 T10831106
  • 280751Z AUTO 22011KT 1/2SM SN FZFG VV007 M08/M11 A2937 RMK AO2 SLP971 P0000 T10831106
  • 280712Z AUTO 24012KT 1/2SM SN FZFG VV008 M08/M11 A2937 RMK AO2 P0000 T10831106
  • 280700Z AUTO 23010G19KT 3/4SM -SN VV012 M08/M11 A2937 RMK AO2 P0000 T10781106
  • 280651Z AUTO 24013G20KT 1SM -SN VV016 M08/M11 A2938 RMK AO2 PK WND 24026/0620 SLP972 P0000 T10781106

TAF KSLK
Valid from the 28 at 09:00 until the 29 at 06:00 UTC


280844Z 2809/2906 24012G25KT 1/2SM BLSN FZFG VV005 WS020/26050KT
FM281400 26019G28KT 1SM -SN BLSN BR OVC035
FM281700 25016G26KT 1 1/2SM -SN BR OVC030
FM290000 23012KT 1 1/2SM -SN BR BKN035



MET'MAP, your aeronautical weather chart ! - Copyright ORBIFLY December 2007 - Disclaimer

ORBIFLY MET'MAP TEAM :

Programming & Development : Alexandra Zaïnal
Concept & original design : Baudouin d'Aumeries
Assistance for programming : Marc-Olivier Méhu
Technical & hardware support : Manuel Goepfert

Contact : metmap@orbifly.com




SOURCES & CREDITS :

   NOAA